createdAt,value
2019-06-07T00:00:44.355Z,8.47
2019-06-07T00:03:24.861Z,8.97
2019-06-07T00:05:46.685Z,9.27
2019-06-07T00:08:24.833Z,8.47
2019-06-07T00:10:50.146Z,8.80
2019-06-07T00:13:20.522Z,9.47
2019-06-07T00:15:50.811Z,11.40
2019-06-07T00:18:25.963Z,9.80
2019-06-07T00:20:53.126Z,9.77
2019-06-07T00:23:23.460Z,8.90
2019-06-07T00:25:53.871Z,8.70
2019-06-07T00:28:24.591Z,8.77
2019-06-07T00:30:54.943Z,8.60
2019-06-07T00:33:25.332Z,7.90
2019-06-07T00:35:55.709Z,7.87
2019-06-07T00:38:26.030Z,8.10
2019-06-07T00:40:56.372Z,7.50
2019-06-07T00:43:28.611Z,7.57
2019-06-07T00:45:58.652Z,7.50
2019-06-07T00:48:32.758Z,7.53
2019-06-07T00:51:00.917Z,7.33
2019-06-07T00:53:32.567Z,7.60
2019-06-07T00:56:03.224Z,7.07
2019-06-07T00:58:33.774Z,7.00
2019-06-07T01:01:04.118Z,7.07
2019-06-07T01:03:34.428Z,7.30
2019-06-07T01:06:04.780Z,7.37
2019-06-07T01:08:35.250Z,7.10
2019-06-07T01:11:05.632Z,6.90
2019-06-07T01:13:36.083Z,7.37
2019-06-07T01:16:06.612Z,8.20
2019-06-07T01:18:41.206Z,9.97
2019-06-07T01:21:08.910Z,10.67
2019-06-07T01:24:10.629Z,10.23
2019-06-07T01:26:12.047Z,10.83
2019-06-07T01:28:42.762Z,12.77
2019-06-07T01:31:13.558Z,13.33
2019-06-07T01:33:50.943Z,13.27
2019-06-07T01:36:17.831Z,13.47
2019-06-07T01:38:48.235Z,13.37
2019-06-07T01:41:22.018Z,13.00
2019-06-07T01:43:50.624Z,12.30
2019-06-07T01:46:23.402Z,11.67
2019-06-07T01:48:53.564Z,12.57
2019-06-07T01:51:24.426Z,13.47
2019-06-07T01:54:41.344Z,14.07
2019-06-07T01:56:29.582Z,15.23
2019-06-07T01:58:59.610Z,15.73
2019-06-07T02:01:35.223Z,16.07
2019-06-07T02:04:03.053Z,17.03
2019-06-07T02:06:33.755Z,17.30
2019-06-07T02:09:05.707Z,17.83
2019-06-07T02:11:36.126Z,19.53
2019-06-07T02:14:06.880Z,20.87
2019-06-07T02:16:37.256Z,19.17
2019-06-07T02:19:07.639Z,19.27
2019-06-07T02:21:37.950Z,24.20
2019-06-07T02:24:08.299Z,23.93
2019-06-07T02:26:38.962Z,22.70
2019-06-07T02:29:09.433Z,26.07
2019-06-07T02:31:40.095Z,29.77
2019-06-07T02:34:10.511Z,25.07
2019-06-07T02:36:41.717Z,23.53
2019-06-07T02:39:12.304Z,23.20
2019-06-07T02:41:42.636Z,20.63
2019-06-07T02:44:12.954Z,22.13
2019-06-07T02:46:48.752Z,21.70
2019-06-07T02:49:15.247Z,20.23
2019-06-07T02:51:45.603Z,20.27
2019-06-07T02:54:15.940Z,22.67
2019-06-07T02:56:58.105Z,22.50
2019-06-07T02:59:45.516Z,22.87
2019-06-07T03:01:52.410Z,19.17
2019-06-07T03:04:22.760Z,20.17
2019-06-07T03:06:56.355Z,20.10
2019-06-07T03:09:30.830Z,20.23
2019-06-07T03:12:02.255Z,19.83
2019-06-07T03:14:37.083Z,19.00
2019-06-07T03:17:24.598Z,18.57
2019-06-07T03:19:56.732Z,20.23
2019-06-07T03:22:27.068Z,18.17
2019-06-07T03:25:01.694Z,20.60
2019-06-07T03:27:40.636Z,18.50
2019-06-07T03:30:35.010Z,18.80
2019-06-07T03:32:46.488Z,18.93
2019-06-07T03:35:09.165Z,21.27
2019-06-07T03:37:42.928Z,23.27
2019-06-07T03:40:12.639Z,21.00
2019-06-07T03:42:42.969Z,22.70
2019-06-07T03:45:13.320Z,24.23
2019-06-07T03:47:43.690Z,22.47
2019-06-07T03:50:14.168Z,24.50
2019-06-07T03:52:44.463Z,22.53
2019-06-07T03:55:14.824Z,21.23
2019-06-07T03:58:30.197Z,21.17
2019-06-07T04:00:17.213Z,23.13
2019-06-07T04:02:47.536Z,23.40
2019-06-07T04:05:17.993Z,21.20
2019-06-07T04:07:48.318Z,27.43
2019-06-07T04:10:18.723Z,21.63
2019-06-07T04:12:49.057Z,26.73
2019-06-07T04:15:19.429Z,27.37
2019-06-07T04:18:01.426Z,23.70
2019-06-07T04:20:21.815Z,23.10
2019-06-07T04:22:52.138Z,20.00
2019-06-07T04:25:22.519Z,22.53
2019-06-07T04:27:52.800Z,18.97
2019-06-07T04:30:41.517Z,18.30
2019-06-07T04:33:12.406Z,19.17
2019-06-07T04:35:45.294Z,17.03
2019-06-07T04:38:16.214Z,18.07
2019-06-07T04:40:47.438Z,17.37
2019-06-07T04:43:17.763Z,16.90
2019-06-07T04:45:51.318Z,15.33
2019-06-07T04:48:22.309Z,15.90
2019-06-07T04:50:55.030Z,18.00
2019-06-07T04:53:25.403Z,16.40
2019-06-07T04:55:56.100Z,16.63
2019-06-07T04:58:26.388Z,15.23
2019-06-07T05:01:03.112Z,19.40
2019-06-07T05:03:31.384Z,17.80
2019-06-07T05:06:00.679Z,15.80
2019-06-07T05:08:33.185Z,12.33
2019-06-07T05:11:02.942Z,12.10
2019-06-07T05:13:37.860Z,12.07
2019-06-07T05:16:05.347Z,11.63
2019-06-07T05:18:39.602Z,11.23
2019-06-07T05:21:07.668Z,11.60
2019-06-07T05:26:09.989Z,12.03
2019-06-07T05:28:42.828Z,10.53
2019-06-07T05:31:12.478Z,11.50
2019-06-07T05:33:43.574Z,11.60
2019-06-07T05:36:14.144Z,12.27
2019-06-07T05:38:45.062Z,11.37
2019-06-07T05:41:15.597Z,10.80
2019-06-07T05:44:00.638Z,10.60
2019-06-07T05:46:17.908Z,10.20
2019-06-07T05:48:48.509Z,9.83
2019-06-07T05:51:18.907Z,9.70
2019-06-07T05:53:49.255Z,9.90
2019-06-07T05:56:19.633Z,9.20
2019-06-07T05:58:49.958Z,10.13
2019-06-07T06:01:42.996Z,10.30
2019-06-07T06:03:52.297Z,10.33
2019-06-07T06:06:22.654Z,10.33
2019-06-07T06:09:11.599Z,11.00
2019-06-07T06:11:43.080Z,11.13
2019-06-07T06:14:07.395Z,12.60
2019-06-07T06:16:45.356Z,11.60
2019-06-07T06:19:13.154Z,10.23
2019-06-07T06:21:46.310Z,9.93
2019-06-07T06:24:15.408Z,10.40
2019-06-07T06:26:51.195Z,10.43
2019-06-07T06:29:17.719Z,10.73
2019-06-07T06:32:35.867Z,10.77
2019-06-07T06:34:20.066Z,11.63
2019-06-07T06:36:50.590Z,11.50
2019-06-07T06:39:20.965Z,13.27
2019-06-07T06:42:01.234Z,14.30
2019-06-07T06:44:23.252Z,10.80
2019-06-07T06:46:58.270Z,11.17
2019-06-07T06:49:25.537Z,10.37
2019-06-07T06:51:55.917Z,10.20
2019-06-07T06:54:40.317Z,10.93
2019-06-07T06:57:18.079Z,9.90
2019-06-07T06:59:39.572Z,9.53
2019-06-07T07:02:03.184Z,10.57
2019-06-07T07:04:34.160Z,12.43
2019-06-07T07:07:04.518Z,11.50
2019-06-07T07:09:36.158Z,10.73
2019-06-07T07:12:12.201Z,10.20
2019-06-07T07:14:38.502Z,10.37
2019-06-07T07:17:08.826Z,8.90
2019-06-07T07:19:39.124Z,10.33
2019-06-07T07:22:09.557Z,11.47
2019-06-07T07:24:39.916Z,11.60
2019-06-07T07:27:10.227Z,11.20
2019-06-07T07:29:40.710Z,11.20
2019-06-07T07:32:11.056Z,10.57
2019-06-07T07:34:45.513Z,11.03
2019-06-07T07:37:13.428Z,9.03
2019-06-07T07:39:45.318Z,10.60
2019-06-07T07:42:21.209Z,11.23
2019-06-07T07:44:49.902Z,11.20
2019-06-07T07:47:19.820Z,10.80
2019-06-07T07:49:53.028Z,9.73
2019-06-07T07:52:22.077Z,10.97
2019-06-07T07:54:56.275Z,9.20
2019-06-07T07:57:24.775Z,9.20
2019-06-07T08:00:13.240Z,8.20
2019-06-07T08:02:27.116Z,8.40
2019-06-07T08:05:22.642Z,6.77
2019-06-07T08:07:30.444Z,6.80
2019-06-07T08:10:03.909Z,7.80
2019-06-07T08:12:55.798Z,5.97
2019-06-07T08:15:05.140Z,5.70
2019-06-07T08:17:35.716Z,5.40
2019-06-07T08:20:06.147Z,6.63
2019-06-07T08:22:36.459Z,7.00
2019-06-07T08:25:06.917Z,6.97
2019-06-07T08:27:37.224Z,6.40
2019-06-07T08:30:46.411Z,6.40
2019-06-07T08:32:41.100Z,6.83
2019-06-07T08:35:11.436Z,7.43
2019-06-07T08:38:15.056Z,6.90
2019-06-07T08:40:15.561Z,7.90
2019-06-07T08:43:03.127Z,8.17
2019-06-07T08:45:19.608Z,7.73
2019-06-07T08:47:53.569Z,7.67
2019-06-07T08:50:22.202Z,9.00
2019-06-07T08:52:56.062Z,8.23
2019-06-07T08:55:24.627Z,9.07
2019-06-07T08:58:02.220Z,9.07
2019-06-07T09:00:45.207Z,9.40
2019-06-07T09:03:06.484Z,9.40
2019-06-07T09:05:31.618Z,7.07
2019-06-07T09:08:23.604Z,8.63
2019-06-07T09:10:34.954Z,8.60
2019-06-07T09:13:11.353Z,7.53
2019-06-07T09:15:37.460Z,8.33
2019-06-07T09:18:40.029Z,8.87
2019-06-07T09:20:45.222Z,10.20
2019-06-07T09:23:17.000Z,9.77
2019-06-07T09:25:57.525Z,9.70
2019-06-07T09:28:20.833Z,9.13
2019-06-07T09:30:51.822Z,7.72
2019-06-07T09:33:22.155Z,7.60
2019-06-07T09:35:52.697Z,9.00
2019-06-07T09:38:26.260Z,7.63
2019-06-07T09:40:57.386Z,8.30
2019-06-07T09:46:01.159Z,9.00
2019-06-07T09:51:09.757Z,9.80
2019-06-07T09:53:34.983Z,10.03
2019-06-07T09:56:08.676Z,8.93
2019-06-07T09:58:54.219Z,8.30
2019-06-07T10:01:13.322Z,9.23
2019-06-07T10:03:41.256Z,10.00
2019-06-07T10:06:13.570Z,9.47
2019-06-07T10:11:17.430Z,9.53
2019-06-07T10:13:48.811Z,8.87
2019-06-07T10:16:19.195Z,10.50
2019-06-07T10:18:49.548Z,9.90
2019-06-07T10:21:19.880Z,9.07
2019-06-07T10:23:50.239Z,10.53
2019-06-07T10:26:20.584Z,9.03
2019-06-07T10:28:53.443Z,9.33
2019-06-07T10:31:22.888Z,9.97
2019-06-07T10:33:53.291Z,11.97
2019-06-07T10:36:23.640Z,11.57
2019-06-07T10:38:53.982Z,11.93
2019-06-07T10:41:25.291Z,10.03
2019-06-07T10:43:55.603Z,8.87
2019-06-07T10:46:25.987Z,8.73
2019-06-07T10:48:56.588Z,7.00
2019-06-07T10:51:27.061Z,9.50
2019-06-07T10:53:57.462Z,8.13
2019-06-07T10:56:27.844Z,8.93
2019-06-07T10:58:58.217Z,7.37
2019-06-07T11:01:28.557Z,9.47
2019-06-07T11:03:58.906Z,9.20
2019-06-07T11:06:29.334Z,8.13
2019-06-07T11:08:59.661Z,8.57
2019-06-07T11:11:30.017Z,10.67
2019-06-07T11:14:00.366Z,8.57
2019-06-07T11:16:30.724Z,8.23
2019-06-07T11:19:01.055Z,8.70
2019-06-07T11:21:31.427Z,6.47
2019-06-07T11:24:01.749Z,7.60
2019-06-07T11:26:32.145Z,5.67
2019-06-07T11:29:02.459Z,5.12
2019-06-07T11:31:32.819Z,5.87
2019-06-07T11:34:03.152Z,6.90
2019-06-07T11:36:33.502Z,5.37
2019-06-07T11:39:06.724Z,4.80
2019-06-07T11:41:37.256Z,5.20
2019-06-07T11:44:08.775Z,6.25
2019-06-07T11:46:39.330Z,6.25
2019-06-07T11:49:10.869Z,5.95
2019-06-07T11:51:42.810Z,6.95
2019-06-07T11:54:13.980Z,7.40
2019-06-07T11:56:44.591Z,7.75
2019-06-07T11:59:15.327Z,5.60
2019-06-07T12:01:45.689Z,5.20
2019-06-07T12:04:33.850Z,5.05
2019-06-07T12:06:48.000Z,6.12
2019-06-07T12:09:18.761Z,4.90
2019-06-07T12:11:49.263Z,6.33
2019-06-07T12:14:19.611Z,6.50
2019-06-07T12:16:50.200Z,6.25
2019-06-07T12:19:21.539Z,6.33
2019-06-07T12:21:51.895Z,6.08
2019-06-07T12:24:23.302Z,5.62
2019-06-07T12:26:54.789Z,5.10
2019-06-07T12:29:25.100Z,6.45
2019-06-07T12:31:55.501Z,4.70
2019-06-07T12:34:25.829Z,4.85
2019-06-07T12:36:56.272Z,4.63
2019-06-07T12:39:26.695Z,6.85
2019-06-07T12:41:57.048Z,6.10
2019-06-07T12:44:27.401Z,5.15
2019-06-07T12:46:57.755Z,4.97
2019-06-07T12:49:28.082Z,4.85
2019-06-07T12:51:58.431Z,4.70
2019-06-07T12:54:28.736Z,4.00
2019-06-07T12:56:59.174Z,4.53
2019-06-07T12:59:30.357Z,5.30
2019-06-07T13:02:02.477Z,5.97
2019-06-07T13:04:32.716Z,5.50
2019-06-07T13:07:03.062Z,5.97
2019-06-07T13:09:35.982Z,6.62
2019-06-07T13:12:05.456Z,10.23
2019-06-07T13:14:35.785Z,10.13
2019-06-07T13:17:06.157Z,11.10
2019-06-07T13:19:36.455Z,9.40
2019-06-07T13:22:06.812Z,9.67
2019-06-07T13:24:37.309Z,10.15
2019-06-07T13:27:07.794Z,8.08
2019-06-07T13:29:38.115Z,5.97
2019-06-07T13:32:08.482Z,7.03
2019-06-07T13:34:38.799Z,7.00
2019-06-07T13:37:10.141Z,7.12
2019-06-07T13:39:40.470Z,6.80
2019-06-07T13:42:11.782Z,5.83
2019-06-07T13:44:42.175Z,4.65
2019-06-07T13:47:13.842Z,5.62
2019-06-07T13:49:44.164Z,5.35
2019-06-07T13:52:15.776Z,4.42
2019-06-07T13:54:46.113Z,4.67
2019-06-07T13:57:17.924Z,5.60
2019-06-07T13:59:48.397Z,5.75
2019-06-07T14:02:18.749Z,5.35
2019-06-07T14:04:49.058Z,5.33
2019-06-07T14:07:21.114Z,5.80
2019-06-07T14:09:51.535Z,6.00
2019-06-07T14:12:22.196Z,5.33
2019-06-07T14:14:53.238Z,5.42
2019-06-07T14:17:23.645Z,4.97
2019-06-07T14:19:53.984Z,4.58
2019-06-07T14:22:24.771Z,6.87
2019-06-07T14:24:55.155Z,7.07
2019-06-07T14:27:25.557Z,8.13
2019-06-07T14:29:55.884Z,9.25
2019-06-07T14:32:26.620Z,7.70
2019-06-07T14:34:57.074Z,7.90
2019-06-07T14:37:28.920Z,8.93
2019-06-07T14:39:59.447Z,10.53
2019-06-07T14:42:29.885Z,8.00
2019-06-07T14:45:05.580Z,10.10
2019-06-07T14:47:32.263Z,9.48
2019-06-07T14:50:02.839Z,9.13
2019-06-07T14:52:34.672Z,6.42
2019-06-07T14:55:05.585Z,5.20
2019-06-07T14:57:36.043Z,4.50
2019-06-07T15:00:11.246Z,4.60
2019-06-07T15:02:40.080Z,4.50
2019-06-07T15:05:10.917Z,4.53
2019-06-07T15:07:41.245Z,4.50
2019-06-07T15:10:11.749Z,4.40
2019-06-07T15:12:42.061Z,4.33
2019-06-07T15:15:12.410Z,4.50
2019-06-07T15:17:43.033Z,4.33
2019-06-07T15:20:13.668Z,4.20
2019-06-07T15:22:43.987Z,4.37
2019-06-07T15:25:14.566Z,4.07
2019-06-07T15:27:44.935Z,4.13
2019-06-07T15:30:16.988Z,4.63
2019-06-07T15:32:47.468Z,3.80
2019-06-07T15:35:18.951Z,3.90
2019-06-07T15:37:49.304Z,3.70
2019-06-07T15:40:19.974Z,3.43
2019-06-07T15:42:53.220Z,3.37
2019-06-07T15:45:22.381Z,3.30
2019-06-07T15:47:52.691Z,3.33
2019-06-07T15:50:23.242Z,4.93
2019-06-07T15:52:53.551Z,2.40
2019-06-07T15:55:24.022Z,2.50
2019-06-07T15:57:54.348Z,2.50
2019-06-07T16:00:24.734Z,2.20
2019-06-07T16:02:55.103Z,2.50
2019-06-07T16:05:25.419Z,1.90
2019-06-07T16:07:55.746Z,1.87
2019-06-07T16:10:26.076Z,1.40
2019-06-07T16:13:00.531Z,1.80
2019-06-07T16:15:28.362Z,1.90
2019-06-07T16:17:58.720Z,1.70
2019-06-07T16:20:29.045Z,1.60
2019-06-07T16:22:59.479Z,1.57
2019-06-07T16:25:29.175Z,1.60
2019-06-07T16:27:59.463Z,1.60
2019-06-07T16:30:29.937Z,1.37
2019-06-07T16:33:00.273Z,1.47
2019-06-07T16:35:30.575Z,1.40
2019-06-07T16:38:01.039Z,1.40
2019-06-07T16:40:31.386Z,1.20
2019-06-07T16:43:16.241Z,1.23
2019-06-07T16:45:33.655Z,1.37
2019-06-07T16:48:04.109Z,1.10
2019-06-07T16:50:34.432Z,1.20
2019-06-07T16:53:04.784Z,1.20
2019-06-07T16:55:36.750Z,1.10
2019-06-07T16:58:07.169Z,1.10
2019-06-07T17:00:38.678Z,1.00
2019-06-07T17:03:09.492Z,1.10
2019-06-07T17:05:43.371Z,1.27
2019-06-07T17:08:11.770Z,1.10
2019-06-07T17:10:42.574Z,1.20
2019-06-07T17:13:13.069Z,1.00
2019-06-07T17:15:44.803Z,1.00
2019-06-07T17:18:15.638Z,1.20
2019-06-07T17:20:47.276Z,1.27
2019-06-07T17:23:17.710Z,1.20
2019-06-07T17:25:48.018Z,1.20
2019-06-07T17:28:18.388Z,1.07
2019-06-07T17:30:50.166Z,2.37
2019-06-07T17:33:20.734Z,1.60
2019-06-07T17:35:51.167Z,1.27
2019-06-07T17:38:21.634Z,1.20
2019-06-07T17:40:51.943Z,1.30
2019-06-07T17:43:22.297Z,1.20
2019-06-07T17:45:52.600Z,1.20
2019-06-07T17:48:24.050Z,1.27
2019-06-07T17:50:54.480Z,1.13
2019-06-07T17:53:24.889Z,1.10
2019-06-07T17:55:55.215Z,1.10
2019-06-07T17:58:25.591Z,1.00
2019-06-07T18:00:55.895Z,1.10
2019-06-07T18:03:26.232Z,1.20
2019-06-07T18:05:56.527Z,1.07
2019-06-07T18:08:27.482Z,1.00
2019-06-07T18:10:57.807Z,1.20
2019-06-07T18:13:28.137Z,1.20
2019-06-07T18:15:59.855Z,1.00
2019-06-07T18:18:30.417Z,0.93
2019-06-07T18:21:00.723Z,1.10
2019-06-07T18:23:32.631Z,1.10
2019-06-07T18:26:02.966Z,1.00
2019-06-07T18:28:34.702Z,1.20
2019-06-07T18:31:05.060Z,1.03
2019-06-07T18:33:35.472Z,1.17
2019-06-07T18:36:05.981Z,1.13
2019-06-07T18:38:36.363Z,1.37
2019-06-07T18:41:06.711Z,1.40
2019-06-07T18:43:37.074Z,1.30
2019-06-07T18:46:08.352Z,1.53
2019-06-07T18:48:39.194Z,1.40
2019-06-07T18:51:09.492Z,1.47
2019-06-07T18:53:39.843Z,1.30
2019-06-07T18:56:10.228Z,1.30
2019-06-07T18:58:40.592Z,1.57
2019-06-07T19:01:10.959Z,1.47
2019-06-07T19:03:41.919Z,1.30
2019-06-07T19:06:12.237Z,1.13
2019-06-07T19:08:42.583Z,1.20
2019-06-07T19:11:12.912Z,1.13
2019-06-07T19:13:43.352Z,1.40
2019-06-07T19:16:14.713Z,0.90
2019-06-07T19:18:45.091Z,1.00
2019-06-07T19:21:18.509Z,1.00
2019-06-07T19:23:50.026Z,1.10
2019-06-07T19:26:20.406Z,1.07
2019-06-07T19:28:50.808Z,1.00
2019-06-07T19:31:21.238Z,0.97
2019-06-07T19:33:53.028Z,1.13
2019-06-07T19:36:23.630Z,1.00
2019-06-07T19:38:54.140Z,1.00
2019-06-07T19:41:24.459Z,1.10
2019-06-07T19:43:56.119Z,1.03
2019-06-07T19:46:26.531Z,1.20
2019-06-07T19:48:56.986Z,1.27
2019-06-07T19:51:27.423Z,1.20
2019-06-07T19:53:58.908Z,1.10
2019-06-07T19:56:29.565Z,1.00
2019-06-07T19:59:00.019Z,1.47
2019-06-07T20:01:30.371Z,1.40
2019-06-07T20:04:02.477Z,2.40
2019-06-07T20:06:34.508Z,1.40
2019-06-07T20:09:06.291Z,1.40
2019-06-07T20:11:36.924Z,1.57
2019-06-07T20:14:07.360Z,1.40
2019-06-07T20:16:37.707Z,1.30
2019-06-07T20:19:08.958Z,1.50
2019-06-07T20:21:40.491Z,1.30
2019-06-07T20:24:24.855Z,1.40
2019-06-07T20:26:43.444Z,1.40
2019-06-07T20:29:25.306Z,1.40
2019-06-07T20:31:46.886Z,1.40
2019-06-07T20:34:17.540Z,1.33
2019-06-07T20:36:48.041Z,1.50
2019-06-07T20:39:18.485Z,1.70
2019-06-07T20:41:49.076Z,1.33
2019-06-07T20:44:19.459Z,1.50
2019-06-07T20:46:50.171Z,1.50
2019-06-07T20:49:20.669Z,1.57
2019-06-07T20:51:51.193Z,1.50
2019-06-07T20:54:21.559Z,1.40
2019-06-07T20:56:51.964Z,1.60
2019-06-07T20:59:25.442Z,1.63
2019-06-07T21:01:57.154Z,1.30
2019-06-07T21:04:27.515Z,1.43
2019-06-07T21:06:59.120Z,1.70
2019-06-07T21:09:29.592Z,1.50
2019-06-07T21:11:59.908Z,1.60
2019-06-07T21:14:30.251Z,1.53
2019-06-07T21:17:00.603Z,1.50
2019-06-07T21:19:31.054Z,1.63
2019-06-07T21:22:02.386Z,1.70
2019-06-07T21:24:32.804Z,1.50
2019-06-07T21:27:03.524Z,1.50
2019-06-07T21:29:33.961Z,1.63
2019-06-07T21:32:05.433Z,1.50
2019-06-07T21:34:35.941Z,1.87
2019-06-07T21:37:06.279Z,1.50
2019-06-07T21:39:36.659Z,1.40
2019-06-07T21:42:08.073Z,1.50
2019-06-07T21:44:38.529Z,1.50
2019-06-07T21:47:08.894Z,1.50
2019-06-07T21:49:39.230Z,1.67
2019-06-07T21:52:10.721Z,1.60
2019-06-07T21:54:52.984Z,1.67
2019-06-07T21:57:23.352Z,1.40
2019-06-07T21:59:53.691Z,1.50
2019-06-07T22:02:24.031Z,1.50
2019-06-07T22:04:54.342Z,1.47
2019-06-07T22:07:24.694Z,1.40
2019-06-07T22:09:55.015Z,1.50
2019-06-07T22:12:25.389Z,1.40
2019-06-07T22:14:55.695Z,1.33
2019-06-07T22:17:26.047Z,1.30
2019-06-07T22:19:56.358Z,1.20
2019-06-07T22:22:26.950Z,1.13
2019-06-07T22:24:57.271Z,1.10
2019-06-07T22:27:27.615Z,1.40
2019-06-07T22:29:57.918Z,1.20
2019-06-07T22:32:28.319Z,1.40
2019-06-07T22:34:58.628Z,1.10
2019-06-07T22:37:28.983Z,1.03
2019-06-07T22:39:59.296Z,1.20
2019-06-07T22:42:31.862Z,1.07
2019-06-07T22:45:04.419Z,1.40
2019-06-07T22:47:36.997Z,1.20
2019-06-07T22:50:08.582Z,1.30
2019-06-07T22:52:41.335Z,1.30
2019-06-07T22:55:13.950Z,1.10
2019-06-07T22:58:03.996Z,1.40
2019-06-07T23:00:37.704Z,1.20
2019-06-07T23:03:08.561Z,1.10
2019-06-07T23:05:38.989Z,1.20
2019-06-07T23:08:09.343Z,1.20
2019-06-07T23:10:39.680Z,1.10
2019-06-07T23:13:11.589Z,1.10
2019-06-07T23:15:42.294Z,1.20
2019-06-07T23:18:13.454Z,1.20
2019-06-07T23:20:43.757Z,1.20
2019-06-07T23:23:14.926Z,1.20
2019-06-07T23:25:45.303Z,1.10
2019-06-07T23:28:16.584Z,1.20
2019-06-07T23:30:46.938Z,1.10
2019-06-07T23:33:17.287Z,1.10
2019-06-07T23:35:47.607Z,1.20
2019-06-07T23:38:19.122Z,1.10
2019-06-07T23:40:50.791Z,1.00
2019-06-07T23:43:21.594Z,1.30
2019-06-07T23:45:51.998Z,1.23
2019-06-07T23:48:22.323Z,1.23
2019-06-07T23:50:52.737Z,1.10
2019-06-07T23:53:23.079Z,1.20
2019-06-07T23:55:53.389Z,1.20
2019-06-07T23:58:23.762Z,1.20
